Time;durP1;ratioP1;P1;durP2;ratioP2;P2;SDS_P1;SDS_P2;PMS_P1;PMS_P2;Temp;Humidity;BMP_temperature;BMP_pressure;BME280_temperature;BME280_humidity;BME280_pressure;Samples;Min_cycle;Max_cycle;Signal;HPM_P1;HPM_P2
2023/03/25 00:01:34;;;;;;;;;;;;;;;18.27;48.28;100371.66;5062167;28;19917;-78
2023/03/25 00:04:26;;;;;;;;;;;;;;;18.19;48.46;100365.25;5063457;28;19920;-77
2023/03/25 00:07:18;;;;;;;;;;;;;;;18.28;48.54;100353.97;5060209;28;19917;-77
2023/03/25 00:10:11;;;;;;;;;;;;;;;18.24;48.39;100364.94;5060158;28;19917;-76
2023/03/25 00:13:04;;;;;;;;;;;;;;;18.26;48.70;100353.56;5066605;28;20296;-78
2023/03/25 00:15:57;;;;;;;;;;;;;;;18.29;48.61;100361.84;5038675;28;19925;-75
2023/03/25 00:18:48;;;;;;;;;;;;;;;18.32;48.51;100360.31;5041572;28;19917;-77
2023/03/25 00:21:40;;;;;;;;;;;;;;;18.34;48.48;100349.69;5041562;28;19917;-77
2023/03/25 00:24:32;;;;;;;;;;;;;;;18.30;48.74;100355.19;5037246;28;20304;-77
2023/03/25 00:27:24;;;;;;;;;;;;;;;18.27;48.77;100363.41;5065994;28;19917;-77
2023/03/25 00:30:16;;;;;;;;;;;;;;;18.21;48.63;100359.41;5052656;28;20388;-77
2023/03/25 00:33:05;;;;;;;;;;;;;;;18.23;48.98;100363.38;5060351;28;19917;-77
2023/03/25 00:35:58;;;;;;;;;;;;;;;18.25;48.98;100363.78;5057445;28;19920;-77
2023/03/25 00:38:49;;;;;;;;;;;;;;;18.26;49.00;100359.06;5056440;28;19917;-77
2023/03/25 00:41:41;;;;;;;;;;;;;;;18.25;48.91;100362.97;5072457;28;19917;-77
2023/03/25 00:44:31;;;;;;;;;;;;;;;18.11;49.26;100358.09;5055307;28;19917;-75
2023/03/25 00:47:23;;;;;;;;;;;;;;;18.18;48.95;100360.16;5054389;28;20375;-76
2023/03/25 00:50:15;;;;;;;;;;;;;;;18.11;48.74;100347.09;5060827;28;19917;-77
2023/03/25 00:53:07;;;;;;;;;;;;;;;17.93;49.33;100344.09;5056364;28;19917;-75
2023/03/25 00:55:59;;;;;;;;;;;;;;;17.87;49.41;100342.88;5059353;28;19928;-77
2023/03/25 00:58:48;;;;;;;;;;;;;;;17.98;48.81;100342.22;5059780;28;19917;-76
2023/03/25 01:01:41;;;;;;;;;;;;;;;17.88;49.56;100332.63;5056117;28;19917;-77
2023/03/25 01:04:33;;;;;;;;;;;;;;;17.79;49.89;100323.88;5059243;28;19917;-77
2023/03/25 01:07:25;;;;;;;;;;;;;;;17.67;50.07;100324.91;5061994;28;19916;-78
2023/03/25 01:10:17;;;;;;;;;;;;;;;17.73;49.94;100317.91;5063544;28;19916;-76
2023/03/25 01:13:09;;;;;;;;;;;;;;;17.70;49.83;100307.66;5038358;28;20295;-76
2023/03/25 01:16:01;;;;;;;;;;;;;;;17.81;49.94;100299.56;5036737;28;20303;-77
2023/03/25 01:18:53;;;;;;;;;;;;;;;17.68;49.98;100303.69;5025074;28;19929;-76
2023/03/25 01:21:47;;;;;;;;;;;;;;;17.63;50.45;100299.31;5039843;28;19921;-78
2023/03/25 01:24:36;;;;;;;;;;;;;;;17.76;49.93;100292.44;5036248;28;19917;-76
2023/03/25 01:27:29;;;;;;;;;;;;;;;17.79;50.11;100301.88;5056953;28;19917;-78
2023/03/25 01:30:21;;;;;;;;;;;;;;;17.71;50.38;100301.00;5058301;28;19916;-77
2023/03/25 01:33:13;;;;;;;;;;;;;;;17.71;50.13;100294.72;5055861;28;19916;-76
2023/03/25 01:36:05;;;;;;;;;;;;;;;17.74;50.18;100294.75;5059659;28;19925;-77
2023/03/25 01:38:57;;;;;;;;;;;;;;;17.79;50.17;100293.63;5055508;28;19916;-76
2023/03/25 01:41:49;;;;;;;;;;;;;;;17.75;50.36;100285.34;5060312;28;20367;-77
2023/03/25 01:44:42;;;;;;;;;;;;;;;17.74;50.25;100280.19;5059696;28;19916;-78
2023/03/25 01:47:34;;;;;;;;;;;;;;;17.69;50.38;100278.56;5059381;28;20377;-76
2023/03/25 01:50:27;;;;;;;;;;;;;;;17.70;50.28;100271.91;5067893;28;19920;-76
2023/03/25 01:53:19;;;;;;;;;;;;;;;17.67;50.47;100266.38;5056291;28;19917;-76
2023/03/25 01:56:13;;;;;;;;;;;;;;;17.55;50.31;100259.13;5045050;28;19921;-75
2023/03/25 01:59:05;;;;;;;;;;;;;;;17.61;50.31;100249.41;5061272;28;19917;-78
2023/03/25 02:01:57;;;;;;;;;;;;;;;17.61;50.88;100238.41;5059255;28;19916;-78
2023/03/25 02:04:57;;;;;;;;;;;;;;;17.69;50.62;100240.06;5058059;28;19917;-78
2023/03/25 02:07:50;;;;;;;;;;;;;;;17.67;50.57;100231.41;5058030;28;19916;-78
2023/03/25 02:10:42;;;;;;;;;;;;;;;17.67;50.67;100231.41;5065043;28;19928;-78
2023/03/25 02:13:35;;;;;;;;;;;;;;;17.53;50.66;100233.94;5077670;28;19924;-77
2023/03/25 02:16:34;;;;;;;;;;;;;;;17.52;50.92;100222.16;5075721;28;19920;-77
2023/03/25 02:19:49;;;;;;;;;;;;;;;17.42;50.86;100230.28;5068747;28;19916;-77
2023/03/25 02:22:41;;;;;;;;;;;;;;;17.40;50.73;100230.66;5065285;28;19916;-77
2023/03/25 02:25:59;;;;;;;;;;;;;;;17.42;50.27;100222.81;5067937;28;19920;-77
2023/03/25 02:28:56;;;;;;;;;;;;;;;17.29;50.60;100231.66;5059037;28;19921;-75
2023/03/25 02:32:09;;;;;;;;;;;;;;;17.40;50.12;100229.84;5066926;28;20496;-76
2023/03/25 02:35:17;;;;;;;;;;;;;;;17.51;49.76;100215.09;5022564;28;19929;-76
2023/03/25 02:38:14;;;;;;;;;;;;;;;17.45;50.02;100215.78;5033653;28;19917;-78
2023/03/25 02:41:24;;;;;;;;;;;;;;;17.37;49.90;100203.13;5037333;28;19917;-78
2023/03/25 02:44:19;;;;;;;;;;;;;;;17.39;49.70;100209.03;5027027;28;19917;-76
2023/03/25 02:47:15;;;;;;;;;;;;;;;17.30;49.91;100208.53;5038593;28;19917;-77
2023/03/25 02:50:11;;;;;;;;;;;;;;;17.27;50.09;100209.28;5056996;28;20511;-78
2023/03/25 02:53:04;;;;;;;;;;;;;;;17.27;50.08;100214.78;5061461;28;19917;-77
2023/03/25 02:55:58;;;;;;;;;;;;;;;17.30;49.97;100225.00;5057632;28;19924;-77
2023/03/25 02:58:51;;;;;;;;;;;;;;;17.19;50.41;100216.63;5060331;28;19917;-78
2023/03/25 03:01:43;;;;;;;;;;;;;;;17.19;50.34;100215.81;5062306;28;19917;-77
2023/03/25 03:04:45;;;;;;;;;;;;;;;17.11;50.68;100225.94;5059134;28;20292;-74
2023/03/25 03:07:43;;;;;;;;;;;;;;;17.08;50.81;100216.47;5060345;28;19925;-77
2023/03/25 03:10:40;;;;;;;;;;;;;;;17.10;50.86;100216.91;5055302;28;19917;-77
2023/03/25 03:13:52;;;;;;;;;;;;;;;17.05;50.99;100208.97;5075077;28;20299;-77
2023/03/25 03:16:59;;;;;;;;;;;;;;;16.72;52.59;100200.63;5081115;28;19921;-78
2023/03/25 03:20:03;;;;;;;;;;;;;;;16.64;53.00;100213.44;5084648;28;19916;-77
2023/03/25 03:23:04;;;;;;;;;;;;;;;16.65;53.41;100217.78;5081687;28;19916;-77
2023/03/25 03:25:57;;;;;;;;;;;;;;;16.74;53.74;100213.97;5076878;28;19916;-76
2023/03/25 03:28:58;;;;;;;;;;;;;;;16.73;53.70;100213.19;5072085;28;19924;-77
2023/03/25 03:31:53;;;;;;;;;;;;;;;16.74;53.83;100208.50;5072803;28;20396;-77
2023/03/25 03:34:53;;;;;;;;;;;;;;;16.66;54.31;100207.56;5092896;28;20307;-77
2023/03/25 03:37:46;;;;;;;;;;;;;;;16.61;54.65;100214.16;5076735;28;19916;-77
2023/03/25 03:40:39;;;;;;;;;;;;;;;16.58;54.88;100209.44;5082421;28;19917;-76
2023/03/25 03:43:35;;;;;;;;;;;;;;;16.63;54.77;100220.09;5078373;28;20383;-76
2023/03/25 03:46:28;;;;;;;;;;;;;;;16.50;55.19;100217.91;5078078;28;19920;-77
2023/03/25 03:49:21;;;;;;;;;;;;;;;16.53;55.08;100230.88;5071754;28;20304;-78
2023/03/25 03:52:23;;;;;;;;;;;;;;;16.74;54.70;100224.97;5067087;28;19916;-76
2023/03/25 03:55:21;;;;;;;;;;;;;;;16.82;54.39;100227.44;5072523;28;20303;-77
2023/03/25 03:58:21;;;;;;;;;;;;;;;16.92;54.09;100221.31;5082582;28;19916;-78
2023/03/25 04:01:26;;;;;;;;;;;;;;;16.90;54.17;100222.88;5077293;28;19916;-78
2023/03/25 04:04:25;;;;;;;;;;;;;;;16.90;54.23;100220.91;5081878;28;19916;-78
2023/03/25 04:07:19;;;;;;;;;;;;;;;16.92;54.31;100217.78;5079083;28;19916;-77
2023/03/25 04:10:22;;;;;;;;;;;;;;;16.97;54.07;100218.25;5081247;28;19924;-77
2023/03/25 04:13:12;;;;;;;;;;;;;;;16.79;54.65;100219.97;5059968;28;19916;-78
2023/03/25 04:16:07;;;;;;;;;;;;;;;16.91;54.29;100225.25;5064052;28;19921;-77
2023/03/25 04:18:59;;;;;;;;;;;;;;;16.92;54.37;100224.06;5060710;28;20448;-78
2023/03/25 04:21:51;;;;;;;;;;;;;;;16.83;54.66;100229.03;5059571;28;20020;-78
2023/03/25 04:24:43;;;;;;;;;;;;;;;16.92;54.46;100229.56;5061576;28;19916;-78
2023/03/25 04:27:36;;;;;;;;;;;;;;;16.85;54.67;100229.47;5059953;28;19917;-78
2023/03/25 04:30:28;;;;;;;;;;;;;;;16.83;54.79;100233.75;5057041;28;19920;-77
2023/03/25 04:33:20;;;;;;;;;;;;;;;16.82;54.88;100232.16;5068827;28;19917;-77
2023/03/25 04:36:12;;;;;;;;;;;;;;;16.92;54.53;100232.31;5061916;28;19921;-78
2023/03/25 04:39:04;;;;;;;;;;;;;;;16.94;54.52;100237.44;5059417;28;19916;-77
2023/03/25 04:41:56;;;;;;;;;;;;;;;16.89;54.73;100237.75;5055783;28;20080;-78
2023/03/25 04:44:46;;;;;;;;;;;;;;;16.79;55.06;100243.88;5056076;28;20295;-77
2023/03/25 04:47:38;;;;;;;;;;;;;;;16.65;55.42;100238.97;5056640;28;19916;-77
2023/03/25 04:50:30;;;;;;;;;;;;;;;16.73;55.23;100239.84;5057816;28;19917;-77
2023/03/25 04:53:22;;;;;;;;;;;;;;;16.77;54.96;100233.25;5067146;28;20403;-76
2023/03/25 04:56:17;;;;;;;;;;;;;;;16.76;54.95;100237.16;5061039;28;19921;-77
2023/03/25 04:59:09;;;;;;;;;;;;;;;16.79;54.82;100252.13;5056458;28;19921;-76
2023/03/25 05:02:01;;;;;;;;;;;;;;;16.76;54.88;100255.63;5059544;28;19916;-76
2023/03/25 05:04:53;;;;;;;;;;;;;;;16.76;54.73;100250.88;5057576;28;19916;-76
2023/03/25 05:07:45;;;;;;;;;;;;;;;16.68;55.13;100262.94;5058093;28;19916;-77
2023/03/25 05:10:37;;;;;;;;;;;;;;;16.73;55.08;100268.09;5061486;28;19921;-76
2023/03/25 05:13:29;;;;;;;;;;;;;;;16.67;55.29;100261.34;5065720;28;19917;-77
2023/03/25 05:16:21;;;;;;;;;;;;;;;16.63;55.31;100271.47;5073006;28;19924;-76
2023/03/25 05:19:13;;;;;;;;;;;;;;;16.58;55.50;100264.34;5089794;28;19916;-77
2023/03/25 05:22:05;;;;;;;;;;;;;;;16.67;55.28;100269.56;5075185;28;20291;-76
2023/03/25 05:24:57;;;;;;;;;;;;;;;16.61;55.46;100271.03;5060654;28;19917;-77
2023/03/25 05:27:50;;;;;;;;;;;;;;;16.61;55.52;100271.03;5061924;28;19925;-78
2023/03/25 05:30:42;;;;;;;;;;;;;;;16.60;55.60;100264.78;5057018;28;19917;-78
2023/03/25 05:33:31;;;;;;;;;;;;;;;16.56;55.54;100265.81;5056804;28;19917;-76
2023/03/25 05:36:23;;;;;;;;;;;;;;;16.56;55.47;100268.56;5059632;28;19921;-77
2023/03/25 05:39:16;;;;;;;;;;;;;;;16.50;55.89;100270.03;5063398;28;19921;-78
2023/03/25 05:42:08;;;;;;;;;;;;;;;16.63;55.48;100268.72;5057866;28;20316;-77
2023/03/25 05:45:00;;;;;;;;;;;;;;;16.57;55.64;100273.69;5056170;28;19916;-79
2023/03/25 05:47:52;;;;;;;;;;;;;;;16.54;55.90;100276.38;5049251;28;19916;-80
2023/03/25 05:50:44;;;;;;;;;;;;;;;16.55;55.96;100267.00;5057429;28;20372;-79
2023/03/25 05:53:33;;;;;;;;;;;;;;;16.64;55.96;100278.56;5053345;28;20300;-79
2023/03/25 05:56:25;;;;;;;;;;;;;;;16.72;55.60;100276.69;5056395;28;19925;-79
2023/03/25 05:59:15;;;;;;;;;;;;;;;16.67;55.81;100277.81;5057219;28;19921;-81
2023/03/25 06:02:07;;;;;;;;;;;;;;;16.62;55.96;100276.16;5059354;28;20292;-79
2023/03/25 06:04:56;;;;;;;;;;;;;;;16.68;55.79;100271.97;5057837;28;19917;-80
2023/03/25 06:07:48;;;;;;;;;;;;;;;16.55;56.18;100272.50;5063679;28;19917;-80
2023/03/25 06:10:40;;;;;;;;;;;;;;;16.52;56.60;100275.94;5072200;28;19917;-81
2023/03/25 06:13:32;;;;;;;;;;;;;;;16.49;56.72;100274.75;5069626;28;19917;-80
2023/03/25 06:16:26;;;;;;;;;;;;;;;16.46;56.83;100275.44;5078135;28;19933;-81
2023/03/25 06:19:18;;;;;;;;;;;;;;;16.55;56.73;100280.72;5082719;28;19917;-79
2023/03/25 06:22:10;;;;;;;;;;;;;;;16.51;57.10;100285.34;5073573;28;19916;-81
2023/03/25 06:25:02;;;;;;;;;;;;;;;16.66;56.81;100298.19;5056399;28;20295;-80
2023/03/25 06:27:54;;;;;;;;;;;;;;;16.75;56.33;100295.22;5061162;28;20295;-79
2023/03/25 06:30:46;;;;;;;;;;;;;;;16.82;56.35;100292.56;5060085;28;19916;-79
2023/03/25 06:33:39;;;;;;;;;;;;;;;16.78;56.47;100288.97;5050127;28;19917;-79
2023/03/25 06:36:31;;;;;;;;;;;;;;;16.87;56.18;100287.56;5057013;28;19921;-80
2023/03/25 06:39:23;;;;;;;;;;;;;;;16.97;56.02;100289.69;5058379;28;19921;-80
2023/03/25 06:42:16;;;;;;;;;;;;;;;16.97;56.24;100273.19;5063437;28;19917;-80
2023/03/25 06:45:26;;;;;;;;;;;;;;;17.00;56.01;100280.72;5056281;28;19916;-78
2023/03/25 06:48:43;;;;;;;;;;;;;;;17.08;55.70;100276.91;5074957;28;20539;-80
2023/03/25 06:51:35;;;;;;;;;;;;;;;17.00;56.23;100277.97;5060366;28;20307;-78
2023/03/25 06:54:27;;;;;;;;;;;;;;;17.09;55.86;100270.25;5065368;28;19921;-78
2023/03/25 06:57:19;;;;;;;;;;;;;;;16.89;56.90;100266.03;5058984;28;19917;-77
2023/03/25 07:00:08;;;;;;;;;;;;;;;16.98;56.56;100263.81;5053878;28;19921;-78
2023/03/25 07:03:00;;;;;;;;;;;;;;;17.10;56.37;100260.06;5054348;28;19917;-77
2023/03/25 07:05:52;;;;;;;;;;;;;;;17.12;56.19;100252.22;5058291;28;19917;-76
2023/03/25 07:08:44;;;;;;;;;;;;;;;17.08;56.46;100251.38;5055616;28;19921;-79
2023/03/25 07:11:36;;;;;;;;;;;;;;;17.08;56.71;100257.69;5058729;28;19917;-78
2023/03/25 07:14:28;;;;;;;;;;;;;;;17.19;56.40;100259.78;5060275;28;19917;-76
2023/03/25 07:17:20;;;;;;;;;;;;;;;17.31;55.86;100267.81;5059047;28;19917;-79
2023/03/25 07:20:10;;;;;;;;;;;;;;;17.39;55.55;100256.53;5059134;28;19916;-79
2023/03/25 07:23:02;;;;;;;;;;;;;;;17.46;55.37;100272.34;5064575;28;19916;-79
2023/03/25 07:25:54;;;;;;;;;;;;;;;17.38;55.81;100259.66;5069977;28;19916;-77
2023/03/25 07:28:46;;;;;;;;;;;;;;;17.31;56.30;100278.81;5060902;28;19917;-78
2023/03/25 07:31:38;;;;;;;;;;;;;;;17.48;55.68;100259.00;5041997;28;20303;-77
2023/03/25 07:34:30;;;;;;;;;;;;;;;17.50;55.72;100265.72;5056904;28;19916;-76
2023/03/25 07:37:23;;;;;;;;;;;;;;;17.52;55.74;100276.38;5056138;28;19917;-78
2023/03/25 07:40:13;;;;;;;;;;;;;;;17.52;55.59;100270.88;5071294;28;19921;-79
2023/03/25 07:43:05;;;;;;;;;;;;;;;17.55;55.42;100267.38;5070074;28;19916;-78
2023/03/25 07:46:15;;;;;;;;;;;;;;;17.59;55.79;100268.22;5067222;28;20638;-78
2023/03/25 07:49:08;;;;;;;;;;;;;;;17.52;55.64;100273.63;5074784;28;19920;-79
2023/03/25 07:52:00;;;;;;;;;;;;;;;17.54;55.62;100263.81;5042523;28;19917;-77
2023/03/25 07:54:52;;;;;;;;;;;;;;;17.59;55.61;100254.47;5038942;28;19925;-77
2023/03/25 07:57:44;;;;;;;;;;;;;;;17.62;55.68;100256.50;5042533;28;19917;-76
2023/03/25 08:00:36;;;;;;;;;;;;;;;17.80;55.06;100268.50;5048819;28;19916;-78
2023/03/25 08:03:28;;;;;;;;;;;;;;;17.75;55.08;100271.59;5086675;28;20290;-77
2023/03/25 08:06:20;;;;;;;;;;;;;;;17.74;55.50;100267.25;5087926;28;19916;-79
2023/03/25 08:09:12;;;;;;;;;;;;;;;17.82;54.85;100274.44;5095808;28;19916;-78
2023/03/25 08:12:02;;;;;;;;;;;;;;;17.88;54.95;100272.91;5085701;28;19916;-79
2023/03/25 08:14:54;;;;;;;;;;;;;;;17.86;54.78;100274.47;5082776;28;19917;-79
2023/03/25 08:17:46;;;;;;;;;;;;;;;17.93;54.55;100282.78;5083184;28;19917;-77
2023/03/25 08:20:36;;;;;;;;;;;;;;;18.10;54.08;100276.69;5083729;28;19916;-77
2023/03/25 08:23:25;;;;;;;;;;;;;;;17.92;54.64;100273.75;5067322;28;19928;-78
2023/03/25 08:26:14;;;;;;;;;;;;;;;17.98;54.45;100282.44;5074347;28;19917;-78
2023/03/25 08:29:02;;;;;;;;;;;;;;;18.07;54.59;100293.19;5051465;28;19917;-78
2023/03/25 08:31:52;;;;;;;;;;;;;;;18.15;53.94;100289.34;5051164;28;19917;-79
2023/03/25 08:34:44;;;;;;;;;;;;;;;18.19;53.82;100290.16;5055337;28;20411;-79
2023/03/25 08:37:36;;;;;;;;;;;;;;;18.27;53.87;100289.88;5049860;28;19917;-78
2023/03/25 08:40:28;;;;;;;;;;;;;;;18.35;53.71;100290.72;5052519;28;19921;-79
2023/03/25 08:43:21;;;;;;;;;;;;;;;18.29;53.60;100298.53;5089952;22;19917;-76
2023/03/25 08:46:13;;;;;;;;;;;;;;;18.32;53.25;100291.50;5050640;28;19925;-76
2023/03/25 08:49:02;;;;;;;;;;;;;;;18.49;52.50;100290.88;5036151;28;20323;-79
2023/03/25 08:51:52;;;;;;;;;;;;;;;18.43;52.42;100292.41;5036039;28;19920;-79
2023/03/25 08:54:41;;;;;;;;;;;;;;;18.53;52.36;100299.19;5042792;28;20412;-79
2023/03/25 08:57:33;;;;;;;;;;;;;;;18.44;52.43;100288.44;5031628;28;19921;-79
2023/03/25 09:00:25;;;;;;;;;;;;;;;18.55;52.36;100296.84;5023059;28;19917;-79
2023/03/25 09:03:14;;;;;;;;;;;;;;;18.60;52.61;100302.00;5040619;28;20388;-79
2023/03/25 09:06:09;;;;;;;;;;;;;;;18.61;52.58;100307.16;5044041;28;19916;-79
2023/03/25 09:09:01;;;;;;;;;;;;;;;18.55;52.42;100316.91;5024399;28;19917;-80
2023/03/25 09:11:53;;;;;;;;;;;;;;;18.62;52.49;100314.25;5038449;28;20285;-80
2023/03/25 09:14:45;;;;;;;;;;;;;;;18.65;51.91;100316.22;5034475;28;19917;-79
2023/03/25 09:17:32;;;;;;;;;;;;;;;18.59;51.92;100317.75;5037307;28;19921;-77
2023/03/25 09:20:21;;;;;;;;;;;;;;;18.61;51.58;100318.16;5034046;28;19921;-79
2023/03/25 09:23:13;;;;;;;;;;;;;;;18.71;51.70;100309.22;5041903;28;19917;-79
2023/03/25 09:26:05;;;;;;;;;;;;;;;18.67;51.55;100304.84;5035329;28;19917;-79
2023/03/25 09:28:55;;;;;;;;;;;;;;;18.82;51.40;100305.75;5005383;28;20137;-78
2023/03/25 09:31:47;;;;;;;;;;;;;;;18.75;51.20;100296.25;5024678;28;19921;-80
2023/03/25 09:34:39;;;;;;;;;;;;;;;18.84;51.39;100304.22;5006372;28;19925;-79
2023/03/25 09:37:31;;;;;;;;;;;;;;;18.79;51.07;100299.81;5019408;28;19921;-80
2023/03/25 09:40:23;;;;;;;;;;;;;;;18.95;50.91;100296.00;5020677;28;19921;-79
2023/03/25 09:43:19;;;;;;;;;;;;;;;18.79;50.42;100288.03;5036051;28;19917;-79
2023/03/25 09:46:11;;;;;;;;;;;;;;;18.95;50.79;100296.81;5040277;28;19917;-79
2023/03/25 09:49:03;;;;;;;;;;;;;;;19.05;50.48;100306.34;5041593;28;19917;-79
2023/03/25 09:51:56;;;;;;;;;;;;;;;19.11;50.60;100302.84;5022859;28;19917;-79
2023/03/25 09:54:50;;;;;;;;;;;;;;;19.17;50.30;100290.28;5040031;28;20407;-80
2023/03/25 09:57:43;;;;;;;;;;;;;;;19.23;49.97;100291.53;5026110;28;19921;-79
2023/03/25 10:00:35;;;;;;;;;;;;;;;19.11;49.98;100289.06;5047327;28;19916;-79
2023/03/25 10:03:26;;;;;;;;;;;;;;;19.25;49.55;100288.34;5041502;28;19921;-80
2023/03/25 10:06:17;;;;;;;;;;;;;;;19.21;49.19;100288.34;5043809;28;19917;-80
2023/03/25 10:09:17;;;;;;;;;;;;;;;19.29;49.31;100291.97;5038712;28;19917;-79
2023/03/25 10:12:12;;;;;;;;;;;;;;;19.31;48.85;100292.34;5025041;28;19917;-79
2023/03/25 10:15:05;;;;;;;;;;;;;;;19.36;48.94;100283.72;5021384;28;19921;-79
2023/03/25 10:18:13;;;;;;;;;;;;;;;19.36;48.81;100272.69;5027181;28;19921;-79
2023/03/25 10:21:15;;;;;;;;;;;;;;;19.37;48.58;100271.50;5038127;28;19917;-79
2023/03/25 10:24:15;;;;;;;;;;;;;;;19.48;48.58;100269.63;5036502;28;19921;-79
2023/03/25 10:27:14;;;;;;;;;;;;;;;19.55;47.77;100266.13;5032154;28;19921;-79
2023/03/25 10:30:07;;;;;;;;;;;;;;;19.55;47.35;100258.66;5042432;28;19917;-79
2023/03/25 10:32:55;;;;;;;;;;;;;;;19.56;47.80;100248.38;5034856;28;20300;-80
2023/03/25 10:35:48;;;;;;;;;;;;;;;19.56;46.63;100237.34;5038640;28;19925;-79
2023/03/25 10:38:39;;;;;;;;;;;;;;;19.61;46.68;100240.53;5041321;28;19917;-80
2023/03/25 10:41:31;;;;;;;;;;;;;;;19.68;46.57;100244.50;5039540;28;20299;-80
2023/03/25 10:44:26;;;;;;;;;;;;;;;19.77;45.04;100245.72;5039145;28;19921;-80
2023/03/25 10:47:20;;;;;;;;;;;;;;;19.78;45.29;100232.72;5044222;28;19917;-80
2023/03/25 10:50:21;;;;;;;;;;;;;;;19.76;44.36;100221.28;5047417;28;19917;-81
2023/03/25 10:53:23;;;;;;;;;;;;;;;19.82;45.04;100231.53;5040542;28;19917;-81
2023/03/25 10:56:18;;;;;;;;;;;;;;;19.95;43.73;100232.00;5029260;28;19921;-82
2023/03/25 10:59:15;;;;;;;;;;;;;;;20.00;44.84;100235.16;5050932;28;19917;-80
2023/03/25 11:02:14;;;;;;;;;;;;;;;20.08;42.36;100224.91;5045951;28;19921;-80
2023/03/25 11:05:08;;;;;;;;;;;;;;;20.15;45.03;100229.66;5042851;28;19917;-82
2023/03/25 11:08:05;;;;;;;;;;;;;;;20.18;44.07;100243.47;5046038;28;20324;-81
2023/03/25 11:10:58;;;;;;;;;;;;;;;20.28;44.94;100234.41;5027265;28;19921;-82
2023/03/25 11:13:58;;;;;;;;;;;;;;;20.27;44.07;100234.81;5040692;28;19921;-81
2023/03/25 11:17:07;;;;;;;;;;;;;;;20.32;42.15;100235.25;5027291;28;19925;-80
2023/03/25 11:20:00;;;;;;;;;;;;;;;20.39;41.29;100231.69;5066700;28;20283;-83
2023/03/25 11:22:52;;;;;;;;;;;;;;;20.42;41.50;100228.94;5063222;28;19916;-79
2023/03/25 11:25:44;;;;;;;;;;;;;;;20.46;40.48;100240.81;5060735;28;20304;-80
2023/03/25 11:28:44;;;;;;;;;;;;;;;20.53;42.58;100231.72;5036689;28;20063;-81
2023/03/25 11:31:36;;;;;;;;;;;;;;;20.58;39.65;100242.38;5052054;28;19917;-82
2023/03/25 11:34:28;;;;;;;;;;;;;;;20.61;39.59;100229.75;5062640;28;19917;-81
2023/03/25 11:37:26;;;;;;;;;;;;;;;20.69;39.37;100223.81;5063954;28;19921;-81
2023/03/25 11:40:19;;;;;;;;;;;;;;;20.73;39.26;100224.59;5067902;28;19917;-82
2023/03/25 11:43:11;;;;;;;;;;;;;;;20.84;36.85;100230.13;5059913;28;19917;-82
2023/03/25 11:46:15;;;;;;;;;;;;;;;20.82;39.75;100226.97;5052141;28;19917;-84
2023/03/25 11:49:16;;;;;;;;;;;;;;;21.09;30.58;100221.78;5040044;28;20299;-82
2023/03/25 11:52:14;;;;;;;;;;;;;;;21.15;30.34;100212.72;5061372;28;19917;-83
2023/03/25 11:55:06;;;;;;;;;;;;;;;21.22;31.42;100212.72;5026611;28;19917;-82
2023/03/25 11:57:59;;;;;;;;;;;;;;;21.33;30.13;100196.84;5050651;28;19924;-83
2023/03/25 12:00:53;;;;;;;;;;;;;;;21.44;28.31;100199.59;5037249;28;19925;-79
2023/03/25 12:03:42;;;;;;;;;;;;;;;21.67;27.49;100185.28;5036638;28;19917;-78
2023/03/25 12:06:32;;;;;;;;;;;;;;;21.84;26.44;100178.06;5050388;28;19924;-78
2023/03/25 12:09:23;;;;;;;;;;;;;;;21.86;26.01;100178.44;5030160;28;20303;-78
2023/03/25 12:12:19;;;;;;;;;;;;;;;21.93;25.21;100168.13;5056844;28;19917;-78
2023/03/25 12:15:20;;;;;;;;;;;;;;;21.93;25.66;100164.56;5030012;28;19917;-77
2023/03/25 12:18:33;;;;;;;;;;;;;;;22.03;23.31;100153.44;5048993;28;19921;-79
2023/03/25 12:21:46;;;;;;;;;;;;;;;22.04;22.08;100132.09;5043707;28;19917;-79
2023/03/25 12:24:42;;;;;;;;;;;;;;;22.04;21.75;100154.25;5024583;28;19917;-80
2023/03/25 12:27:50;;;;;;;;;;;;;;;22.00;22.68;100148.72;5043802;28;19917;-79
2023/03/25 12:30:49;;;;;;;;;;;;;;;21.96;22.83;100134.09;5045179;28;19921;-80
2023/03/25 12:33:57;;;;;;;;;;;;;;;21.98;23.03;100140.03;5042874;28;19921;-79
2023/03/25 12:36:56;;;;;;;;;;;;;;;22.01;23.80;100122.59;5045948;28;20400;-79
2023/03/25 12:40:09;;;;;;;;;;;;;;;22.09;24.84;100126.91;5039838;28;19916;-79
2023/03/25 12:43:05;;;;;;;;;;;;;;;22.07;22.93;100131.25;5036624;28;19921;-79
2023/03/25 12:46:21;;;;;;;;;;;;;;;21.94;21.52;100133.72;5037896;28;19940;-79
2023/03/25 12:49:30;;;;;;;;;;;;;;;22.00;22.73;100125.75;5017633;28;19918;-79
2023/03/25 12:52:37;;;;;;;;;;;;;;;22.13;23.55;100132.41;5030244;28;20312;-77
2023/03/25 12:55:50;;;;;;;;;;;;;;;22.22;24.01;100134.69;5036003;28;19921;-80
2023/03/25 12:58:58;;;;;;;;;;;;;;;22.27;24.23;100137.81;5037725;28;19917;-80
2023/03/25 13:02:11;;;;;;;;;;;;;;;22.12;23.89;100122.53;5019358;28;19925;-80
2023/03/25 13:05:04;;;;;;;;;;;;;;;22.24;24.45;100127.56;5021299;28;20339;-80
2023/03/25 13:08:04;;;;;;;;;;;;;;;22.25;23.81;100112.50;5020083;28;19917;-79
2023/03/25 13:11:01;;;;;;;;;;;;;;;22.18;23.45;100099.53;5036334;28;19917;-79
2023/03/25 13:13:57;;;;;;;;;;;;;;;22.24;22.77;100112.94;5032559;28;19917;-80
2023/03/25 13:16:51;;;;;;;;;;;;;;;22.08;23.77;100111.47;5034337;28;19921;-80
2023/03/25 13:19:43;;;;;;;;;;;;;;;22.09;24.58;100106.72;5035819;28;19917;-77
2023/03/25 13:22:36;;;;;;;;;;;;;;;22.20;24.98;100106.63;5032445;28;19921;-80
2023/03/25 13:25:35;;;;;;;;;;;;;;;22.20;23.01;100099.09;5024000;28;19917;-81
2023/03/25 13:28:27;;;;;;;;;;;;;;;22.09;24.05;100090.91;5038549;28;19925;-80
2023/03/25 13:31:23;;;;;;;;;;;;;;;22.25;23.12;100090.34;5039710;28;19917;-80
2023/03/25 13:34:22;;;;;;;;;;;;;;;22.28;22.49;100086.78;5022551;28;19917;-81
2023/03/25 13:37:17;;;;;;;;;;;;;;;22.31;21.60;100080.41;5040553;28;19922;-80
2023/03/25 13:40:15;;;;;;;;;;;;;;;22.08;21.54;100094.06;5037254;28;19917;-80
2023/03/25 13:43:23;;;;;;;;;;;;;;;22.06;22.33;100077.06;5019394;28;20271;-79
2023/03/25 13:46:17;;;;;;;;;;;;;;;22.07;22.57;100076.66;5039199;28;19917;-82
2023/03/25 13:49:24;;;;;;;;;;;;;;;22.23;21.43;100067.81;5037606;28;19917;-81
2023/03/25 13:52:16;;;;;;;;;;;;;;;22.34;20.31;100073.28;5038376;28;19917;-81
2023/03/25 13:55:11;;;;;;;;;;;;;;;22.22;20.67;100068.22;5021099;28;19921;-81
2023/03/25 13:58:19;;;;;;;;;;;;;;;22.24;21.71;100063.06;5040838;28;19921;-81
2023/03/25 14:01:24;;;;;;;;;;;;;;;22.32;21.90;100070.09;5023198;28;20391;-81
2023/03/25 14:04:17;;;;;;;;;;;;;;;22.32;21.03;100073.66;5037404;28;20303;-80
2023/03/25 14:07:21;;;;;;;;;;;;;;;22.40;22.19;100077.16;5038185;28;20596;-80
2023/03/25 14:10:23;;;;;;;;;;;;;;;22.28;21.09;100072.91;5034611;28;20296;-80
2023/03/25 14:13:16;;;;;;;;;;;;;;;22.32;21.22;100081.97;5037707;28;20327;-82
2023/03/25 14:16:09;;;;;;;;;;;;;;;22.40;21.93;100072.38;5036590;28;19921;-82
2023/03/25 14:19:08;;;;;;;;;;;;;;;22.26;22.77;100071.75;5039108;28;19917;-79
2023/03/25 14:22:00;;;;;;;;;;;;;;;22.23;21.94;100073.38;5036091;28;19917;-80
2023/03/25 14:24:52;;;;;;;;;;;;;;;22.03;22.40;100058.50;5019419;28;19917;-81
2023/03/25 14:27:49;;;;;;;;;;;;;;;22.08;23.00;100061.63;5045193;28;19917;-81
2023/03/25 14:30:41;;;;;;;;;;;;;;;22.09;23.68;100056.88;5018887;28;19917;-80
2023/03/25 14:33:51;;;;;;;;;;;;;;;22.33;23.01;100060.59;5033704;28;19921;-81
2023/03/25 14:36:44;;;;;;;;;;;;;;;22.23;23.32;100067.81;5034970;28;19921;-84
2023/03/25 14:39:34;;;;;;;;;;;;;;;22.20;24.04;100067.88;5037283;28;20297;-83
2023/03/25 14:42:32;;;;;;;;;;;;;;;22.17;23.16;100075.00;5027000;28;19917;-83
2023/03/25 14:45:34;;;;;;;;;;;;;;;22.07;22.22;100062.81;5040912;28;19917;-88
2023/03/25 14:48:27;;;;;;;;;;;;;;;21.99;23.08;100057.75;5043979;28;19917;-83
2023/03/25 14:51:38;;;;;;;;;;;;;;;22.07;24.24;100071.13;5026031;28;19917;-85
2023/03/25 14:54:31;;;;;;;;;;;;;;;22.06;24.12;100069.53;5048911;28;20315;-86
2023/03/25 14:57:22;;;;;;;;;;;;;;;22.04;24.28;100069.19;5052127;28;19921;-86